createdAt,value
2022-11-14T00:03:39.843Z,39.67
2022-11-14T00:07:21.806Z,29.17
2022-11-14T00:11:04.366Z,36.93
2022-11-14T00:14:48.467Z,34.13
2022-11-14T00:18:31.035Z,31.33
2022-11-14T00:22:13.775Z,30.13
2022-11-14T00:25:55.931Z,35.60
2022-11-14T00:29:38.500Z,29.40
2022-11-14T00:33:23.222Z,39.63
2022-11-14T00:37:05.573Z,32.43
2022-11-14T00:40:47.732Z,28.87
2022-11-14T00:44:30.184Z,32.83
2022-11-14T00:48:13.118Z,35.60
2022-11-14T00:51:56.724Z,31.93
2022-11-14T00:55:40.237Z,33.27
2022-11-14T00:59:22.628Z,40.43
2022-11-14T01:03:05.198Z,31.60
2022-11-14T01:06:48.295Z,33.20
2022-11-14T01:10:32.550Z,32.03
2022-11-14T01:14:15.325Z,28.93
2022-11-14T01:17:57.789Z,33.73
2022-11-14T01:21:40.361Z,31.20
2022-11-14T01:25:23.269Z,34.07
2022-11-14T01:29:06.947Z,34.00
2022-11-14T01:32:49.195Z,32.87
2022-11-14T01:36:31.374Z,29.80
2022-11-14T01:40:14.072Z,31.20
2022-11-14T01:43:56.036Z,29.00
2022-11-14T01:47:39.633Z,30.40
2022-11-14T01:51:28.442Z,31.73
2022-11-14T01:55:11.676Z,26.07
2022-11-14T01:58:57.888Z,30.90
2022-11-14T02:02:42.224Z,26.40
2022-11-14T02:06:26.874Z,26.03
2022-11-14T02:10:12.110Z,30.70
2022-11-14T02:13:54.381Z,31.50
2022-11-14T02:17:36.926Z,31.60
2022-11-14T02:21:20.277Z,31.87
2022-11-14T02:25:02.673Z,37.13
2022-11-14T02:28:45.198Z,28.60
2022-11-14T02:32:28.441Z,30.17
2022-11-14T02:36:12.373Z,29.17
2022-11-14T02:39:55.919Z,31.10
2022-11-14T02:43:38.155Z,29.50
2022-11-14T02:47:20.543Z,24.90
2022-11-14T02:51:02.952Z,25.63
2022-11-14T02:54:46.017Z,28.30
2022-11-14T02:58:32.070Z,26.87
2022-11-14T03:02:14.768Z,30.80
2022-11-14T03:06:00.577Z,30.97
2022-11-14T03:09:42.738Z,26.23
2022-11-14T03:13:29.321Z,28.17
2022-11-14T03:17:13.182Z,29.20
2022-11-14T03:20:55.674Z,31.60
2022-11-14T03:24:37.691Z,28.10
2022-11-14T03:28:19.738Z,27.03
2022-11-14T03:32:02.112Z,25.07
2022-11-14T03:35:45.740Z,34.70
2022-11-14T03:39:31.181Z,30.63
2022-11-14T03:43:13.356Z,33.57
2022-11-14T03:46:55.554Z,24.17
2022-11-14T03:50:38.542Z,27.03
2022-11-14T03:54:20.741Z,27.17
2022-11-14T03:58:04.372Z,26.40
2022-11-14T04:01:46.892Z,31.37
2022-11-14T04:05:29.442Z,29.90
2022-11-14T04:09:11.909Z,30.53
2022-11-14T04:12:55.160Z,30.37
2022-11-14T04:16:38.747Z,30.17
2022-11-14T04:20:21.097Z,33.77
2022-11-14T04:24:08.404Z,35.60
2022-11-14T04:27:53.113Z,27.67
2022-11-14T04:31:35.311Z,34.10
2022-11-14T04:35:18.731Z,35.27
2022-11-14T04:39:01.232Z,27.50
2022-11-14T04:42:43.389Z,27.63
2022-11-14T04:46:25.420Z,31.80
2022-11-14T04:50:09.025Z,26.50
2022-11-14T04:53:52.463Z,29.87
2022-11-14T04:57:34.872Z,31.33
2022-11-14T05:01:17.557Z,29.43
2022-11-14T05:04:59.734Z,30.50
2022-11-14T05:08:41.740Z,27.10
2022-11-14T05:12:25.343Z,26.73
2022-11-14T05:16:07.716Z,29.00
2022-11-14T05:19:50.156Z,35.20
2022-11-14T05:23:33.050Z,32.70
2022-11-14T05:27:15.454Z,30.03
2022-11-14T05:31:03.909Z,27.70
2022-11-14T05:34:46.076Z,51.27
2022-11-14T05:38:28.536Z,42.63
2022-11-14T05:42:11.234Z,39.33
2022-11-14T05:45:53.366Z,37.50
2022-11-14T05:49:36.820Z,45.17
2022-11-14T05:53:18.941Z,42.60
2022-11-14T05:57:01.397Z,34.03
2022-11-14T06:00:52.012Z,36.03
2022-11-14T06:04:37.678Z,39.47
2022-11-14T06:08:19.963Z,35.97
2022-11-14T06:12:05.977Z,39.90
2022-11-14T06:15:48.080Z,36.63
2022-11-14T06:19:30.341Z,35.83
2022-11-14T06:23:13.681Z,36.00
2022-11-14T06:26:55.656Z,31.00
2022-11-14T06:30:39.119Z,45.30
2022-11-14T06:34:21.476Z,38.70
2022-11-14T06:38:03.767Z,38.80
2022-11-14T06:41:47.547Z,35.33
2022-11-14T06:45:29.846Z,30.87
2022-11-14T06:49:12.117Z,37.13
2022-11-14T06:52:54.311Z,33.67
2022-11-14T06:56:36.633Z,37.40
2022-11-14T07:00:20.685Z,38.43
2022-11-14T07:04:03.159Z,41.30
2022-11-14T07:07:45.401Z,36.10
2022-11-14T07:11:29.594Z,44.47
2022-11-14T07:15:12.093Z,41.83
2022-11-14T07:18:55.779Z,36.10
2022-11-14T07:22:38.158Z,37.70
2022-11-14T07:26:20.296Z,47.70
2022-11-14T07:30:03.114Z,38.03
2022-11-14T07:33:46.327Z,40.80
2022-11-14T07:37:30.157Z,39.13
2022-11-14T07:41:14.365Z,47.53
2022-11-14T07:44:56.450Z,39.47
2022-11-14T07:48:38.957Z,34.13
2022-11-14T07:52:21.236Z,40.47
2022-11-14T07:56:06.610Z,37.50
2022-11-14T07:59:49.041Z,38.50
2022-11-14T08:03:31.194Z,27.30
2022-11-14T08:07:13.342Z,30.83
2022-11-14T08:10:57.733Z,30.73
2022-11-14T08:14:41.522Z,25.10
2022-11-14T08:18:24.000Z,26.00
2022-11-14T08:22:07.669Z,24.90
2022-11-14T08:25:49.807Z,25.83
2022-11-14T08:29:32.300Z,24.83
2022-11-14T08:33:15.957Z,23.03
2022-11-14T08:36:58.542Z,21.30
2022-11-14T08:40:40.673Z,22.17
2022-11-14T08:44:23.399Z,21.73
2022-11-14T08:48:06.299Z,24.10
2022-11-14T08:51:52.515Z,22.47
2022-11-14T08:55:34.579Z,23.40
2022-11-14T08:59:16.690Z,24.67
2022-11-14T09:02:58.842Z,24.83
2022-11-14T09:06:40.813Z,20.60
2022-11-14T09:10:24.662Z,27.67
2022-11-14T09:14:07.211Z,26.97
2022-11-14T09:17:49.712Z,23.10
2022-11-14T09:21:31.752Z,26.23
2022-11-14T09:25:14.609Z,23.57
2022-11-14T09:28:58.380Z,22.60
2022-11-14T09:32:40.540Z,19.80
2022-11-14T09:36:23.792Z,23.27
2022-11-14T09:40:06.773Z,25.20
2022-11-14T09:44:29.152Z,24.80
2022-11-14T09:48:15.149Z,20.10
2022-11-14T09:52:04.061Z,20.23
2022-11-14T09:55:46.487Z,21.53
2022-11-14T09:59:30.639Z,23.40
2022-11-14T10:03:18.727Z,24.20
2022-11-14T10:07:09.404Z,20.67
2022-11-14T10:10:55.082Z,25.30
2022-11-14T10:14:59.972Z,19.63
2022-11-14T10:19:01.135Z,20.40
2022-11-14T10:23:00.976Z,19.63
2022-11-14T10:26:53.178Z,18.87
2022-11-14T10:30:41.909Z,21.67
2022-11-14T10:34:31.485Z,20.93
2022-11-14T10:38:18.712Z,18.07
2022-11-14T10:42:07.828Z,20.13
2022-11-14T10:45:55.549Z,19.53
2022-11-14T10:49:38.647Z,17.23
2022-11-14T10:53:28.134Z,18.07
2022-11-14T10:57:16.928Z,15.10
2022-11-14T11:01:37.358Z,13.87
2022-11-14T11:05:21.991Z,17.90
2022-11-14T11:09:27.142Z,16.60
2022-11-14T11:13:15.557Z,16.83
2022-11-14T11:17:19.726Z,18.43
2022-11-14T11:21:08.262Z,18.67
2022-11-14T11:24:50.661Z,15.27
2022-11-14T11:28:35.144Z,15.60
2022-11-14T11:32:25.958Z,15.93
2022-11-14T11:36:14.565Z,16.07
2022-11-14T11:40:02.144Z,19.33
2022-11-14T11:43:53.933Z,15.60
2022-11-14T11:47:38.482Z,16.03
2022-11-14T11:51:26.782Z,12.93
2022-11-14T11:55:18.017Z,15.93
2022-11-14T11:59:14.131Z,19.93
2022-11-14T12:02:58.923Z,13.77
2022-11-14T12:06:47.031Z,17.23
2022-11-14T12:10:33.549Z,14.20
2022-11-14T12:14:40.113Z,13.70
2022-11-14T12:18:43.592Z,16.47
2022-11-14T12:22:45.759Z,14.40
2022-11-14T12:26:48.048Z,17.70
2022-11-14T12:30:32.697Z,14.60
2022-11-14T12:34:23.270Z,14.07
2022-11-14T12:38:13.681Z,13.43
2022-11-14T12:42:03.867Z,19.40
2022-11-14T12:46:00.325Z,16.90
2022-11-14T12:49:59.724Z,13.70
2022-11-14T12:53:43.222Z,19.10
2022-11-14T12:57:50.833Z,18.23
2022-11-14T13:01:46.722Z,17.83
2022-11-14T13:05:50.496Z,16.23
2022-11-14T13:09:35.372Z,17.20
2022-11-14T13:13:36.037Z,14.63
2022-11-14T13:17:44.353Z,13.30
2022-11-14T13:21:48.746Z,14.40
2022-11-14T13:25:31.149Z,13.37
2022-11-14T13:29:56.159Z,14.43
2022-11-14T13:33:41.937Z,12.83
2022-11-14T13:37:46.686Z,13.37
2022-11-14T13:42:20.435Z,13.93
2022-11-14T13:46:09.893Z,12.30
2022-11-14T13:50:02.902Z,11.33
2022-11-14T13:53:47.080Z,11.13
2022-11-14T13:57:42.912Z,11.97
2022-11-14T14:01:44.005Z,15.57
2022-11-14T14:05:35.780Z,15.63
2022-11-14T14:09:26.712Z,12.80
2022-11-14T14:13:23.500Z,13.57
2022-11-14T14:17:12.305Z,17.90
2022-11-14T14:21:02.001Z,10.77
2022-11-14T14:25:01.487Z,13.80
2022-11-14T14:28:53.274Z,10.87
2022-11-14T14:32:35.592Z,14.30
2022-11-14T14:36:20.490Z,12.47
2022-11-14T14:40:06.130Z,11.97
2022-11-14T14:43:56.044Z,11.93
2022-11-14T14:47:42.226Z,14.60
2022-11-14T14:51:31.783Z,15.40
2022-11-14T14:55:25.944Z,13.87
2022-11-14T14:59:18.882Z,14.40
2022-11-14T15:03:01.345Z,12.43
2022-11-14T15:06:46.742Z,14.00
2022-11-14T15:10:32.327Z,20.37
2022-11-14T15:14:17.504Z,16.80
2022-11-14T15:18:06.853Z,15.23
2022-11-14T15:22:06.269Z,20.33
2022-11-14T15:25:49.892Z,19.73
2022-11-14T15:29:33.325Z,20.37
2022-11-14T15:33:28.367Z,20.10
2022-11-14T15:37:24.567Z,17.67
2022-11-14T15:41:29.819Z,15.30
2022-11-14T15:45:25.087Z,19.97
2022-11-14T15:49:18.223Z,14.13
2022-11-14T15:53:03.344Z,17.50
2022-11-14T15:56:47.080Z,18.60
2022-11-14T16:00:29.438Z,16.07
2022-11-14T16:04:15.353Z,12.57
2022-11-14T16:07:57.802Z,16.13
2022-11-14T16:11:40.201Z,19.70
2022-11-14T16:15:24.108Z,14.70
2022-11-14T16:19:06.755Z,16.60
2022-11-14T16:22:50.317Z,15.23
2022-11-14T16:26:33.045Z,17.90
2022-11-14T16:30:18.682Z,17.40
2022-11-14T16:34:02.275Z,16.80
2022-11-14T16:37:45.237Z,13.90
2022-11-14T16:41:27.469Z,14.90
2022-11-14T16:45:10.179Z,16.47
2022-11-14T16:48:52.721Z,21.93
2022-11-14T16:52:36.205Z,13.30
2022-11-14T16:56:18.516Z,16.83
2022-11-14T17:00:00.741Z,16.20
2022-11-14T17:03:42.909Z,15.83
2022-11-14T17:07:25.168Z,15.80
2022-11-14T17:11:11.524Z,13.53
2022-11-14T17:14:54.535Z,14.90
2022-11-14T17:18:38.832Z,15.90
2022-11-14T17:22:22.189Z,16.63
2022-11-14T17:26:05.356Z,16.70
2022-11-14T17:29:51.586Z,18.60
2022-11-14T17:33:34.173Z,18.97
2022-11-14T17:37:16.723Z,21.07
2022-11-14T17:40:59.268Z,16.90
2022-11-14T17:44:41.648Z,15.80
2022-11-14T17:48:25.172Z,14.73
2022-11-14T17:52:07.634Z,18.23
2022-11-14T17:55:55.881Z,12.70
2022-11-14T17:59:38.749Z,15.43
2022-11-14T18:03:21.211Z,10.80
2022-11-14T18:07:04.860Z,17.93
2022-11-14T18:10:47.138Z,12.97
2022-11-14T18:14:29.682Z,14.97
2022-11-14T18:18:11.847Z,16.13
2022-11-14T18:21:54.207Z,16.83
2022-11-14T18:25:37.774Z,14.03
2022-11-14T18:29:20.263Z,12.23
2022-11-14T18:33:02.740Z,12.70
2022-11-14T18:36:44.857Z,14.77
2022-11-14T18:40:27.160Z,15.20
2022-11-14T18:44:11.117Z,15.30
2022-11-14T18:47:53.229Z,14.43
2022-11-14T18:51:41.902Z,16.47
2022-11-14T18:55:24.287Z,13.60
2022-11-14T18:59:06.697Z,17.67
2022-11-14T19:02:52.151Z,14.53
2022-11-14T19:06:36.733Z,15.30
2022-11-14T19:10:19.744Z,14.17
2022-11-14T19:14:03.371Z,17.07
2022-11-14T19:17:48.655Z,15.67
2022-11-14T19:21:32.393Z,18.27
2022-11-14T19:25:14.680Z,18.53
2022-11-14T19:28:57.296Z,13.43
2022-11-14T19:32:39.475Z,14.17
2022-11-14T19:36:45.273Z,15.43
2022-11-14T19:40:27.926Z,16.60
2022-11-14T19:44:10.326Z,14.90
2022-11-14T19:47:52.838Z,17.30
2022-11-14T19:51:35.696Z,17.33
2022-11-14T19:55:17.872Z,18.30
2022-11-14T19:59:02.673Z,17.67
2022-11-14T20:02:46.833Z,19.20
2022-11-14T20:06:31.954Z,19.60
2022-11-14T20:10:14.593Z,13.57
2022-11-14T20:13:57.634Z,15.70
2022-11-14T20:17:41.371Z,18.10
2022-11-14T20:21:25.547Z,13.93
2022-11-14T20:25:08.759Z,17.87
2022-11-14T20:28:52.818Z,17.77
2022-11-14T20:32:35.536Z,15.10
2022-11-14T20:36:21.532Z,12.50
2022-11-14T20:40:03.852Z,10.70
2022-11-14T20:43:45.979Z,9.53
2022-11-14T20:47:29.878Z,11.33
2022-11-14T20:51:15.175Z,11.20
2022-11-14T20:54:59.216Z,11.73
2022-11-14T20:58:42.085Z,10.10
2022-11-14T21:02:24.352Z,13.93
2022-11-14T21:06:08.139Z,12.90
2022-11-14T21:10:10.460Z,10.67
2022-11-14T21:13:57.236Z,11.80
2022-11-14T21:17:39.131Z,12.00
2022-11-14T21:21:24.462Z,12.40
2022-11-14T21:25:07.225Z,10.30
2022-11-14T21:28:51.592Z,13.60
2022-11-14T21:32:36.204Z,13.93
2022-11-14T21:40:21.780Z,12.30
2022-11-14T21:44:04.815Z,12.07
2022-11-14T21:47:48.667Z,14.40
2022-11-14T21:51:31.018Z,11.57
2022-11-14T21:55:13.610Z,14.30
2022-11-14T21:59:12.553Z,11.97
2022-11-14T22:03:30.382Z,12.30
2022-11-14T22:07:12.863Z,11.10
2022-11-14T22:11:00.783Z,13.27
2022-11-14T22:14:43.454Z,15.80
2022-11-14T22:18:27.391Z,13.70
2022-11-14T22:22:09.634Z,12.23
2022-11-14T22:25:55.755Z,16.47
2022-11-14T22:29:38.217Z,13.43
2022-11-14T22:33:20.572Z,13.87
2022-11-14T22:37:04.071Z,14.23
2022-11-14T22:40:46.252Z,14.73
2022-11-14T22:44:28.640Z,15.33
2022-11-14T22:48:10.713Z,13.77
2022-11-14T22:51:52.655Z,12.97
2022-11-14T22:55:36.215Z,15.17
2022-11-14T22:59:18.787Z,13.07
2022-11-14T23:03:01.043Z,12.33
2022-11-14T23:07:01.872Z,10.77
2022-11-14T23:10:46.467Z,12.33
2022-11-14T23:14:28.645Z,16.87
2022-11-14T23:18:10.885Z,10.83
2022-11-14T23:21:55.375Z,13.37
2022-11-14T23:25:38.614Z,11.00
2022-11-14T23:29:22.835Z,10.10
2022-11-14T23:33:06.319Z,9.40
2022-11-14T23:36:48.869Z,9.00
2022-11-14T23:40:31.373Z,10.27
2022-11-14T23:49:27.487Z,10.50
2022-11-14T23:53:09.679Z,11.37
2022-11-14T23:56:51.844Z,15.97
